Terminal Aerodrome Forecast
Issued by NWS

Home | Current Version | Previous Version | Text Only | Print | Product List | Glossary On
Versions: 1 2 3 4 5 6 7 8 9 10 11 12 13 14 15 16 17 18 19 20
000
FTUS45 KTFX 182300
TAFHVR
TAF
KHVR 182328Z 1900/1924 27020G32KT P6SM SCT070 BKN110
     FM190200 29022G34KT P6SM VCSH SCT030 OVC050
     FM190800 26020KT P6SM SCT050 BKN080
     FM191200 25011KT P6SM SKC=

USA.gov is the U.S. government's official web portal to all federal, state and local government web resources and services.